Time;durP1;ratioP1;P1;durP2;ratioP2;P2;SDS_P1;SDS_P2;PMS_P1;PMS_P2;Temp;Humidity;BMP_temperature;BMP_pressure;BME280_temperature;BME280_humidity;BME280_pressure;Samples;Min_cycle;Max_cycle;Signal;HPM_P1;HPM_P2
2022/04/09 00:01:17;;;;;;;4.88;2.45;;;8.10;99.90;;;;;;4896193;29;19930;-66
2022/04/09 00:03:43;;;;;;;6.00;4.38;;;8.10;99.90;;;;;;4896913;29;20044;-66
2022/04/09 00:06:10;;;;;;;12.10;5.78;;;8.10;99.90;;;;;;4896412;29;20044;-66
2022/04/09 00:08:37;;;;;;;11.05;7.07;;;8.20;99.90;;;;;;4896709;29;20043;-65
2022/04/09 00:11:04;;;;;;;12.10;7.15;;;8.20;99.90;;;;;;4895995;29;20544;-66
2022/04/09 00:13:31;;;;;;;10.60;6.03;;;8.10;99.90;;;;;;4892720;29;20055;-66
2022/04/09 00:15:57;;;;;;;12.07;6.57;;;8.20;99.90;;;;;;4896908;29;20112;-65
2022/04/09 00:18:24;;;;;;;3.42;1.10;;;8.20;99.90;;;;;;4896497;29;20053;-66
2022/04/09 00:20:51;;;;;;;2.08;0.50;;;8.10;99.90;;;;;;4894013;29;20052;-66
2022/04/09 00:23:18;;;;;;;1.27;0.35;;;8.00;99.90;;;;;;4896642;29;20040;-66
2022/04/09 00:25:46;;;;;;;4.05;2.17;;;7.90;99.90;;;;;;4896025;29;20044;-66
2022/04/09 00:28:13;;;;;;;1.60;0.75;;;7.90;99.90;;;;;;4896622;29;20108;-66
2022/04/09 00:30:40;;;;;;;0.50;0.50;;;7.90;99.90;;;;;;4896197;29;20387;-65
2022/04/09 00:33:07;;;;;;;1.65;0.35;;;7.70;99.90;;;;;;4896904;29;20045;-65
2022/04/09 00:35:34;;;;;;;;;;;7.70;99.90;;;;;;4896521;29;20100;-66
2022/04/09 00:38:01;;;;;;;0.52;0.40;;;7.70;99.90;;;;;;4891986;29;19975;-66
2022/04/09 00:40:28;;;;;;;0.80;0.40;;;7.70;99.90;;;;;;4879222;29;20052;-65
2022/04/09 00:42:55;;;;;;;1.10;0.60;;;7.70;99.90;;;;;;4897266;29;20145;-65
2022/04/09 00:45:22;;;;;;;1.38;0.65;;;7.80;99.90;;;;;;4875404;29;20045;-65
2022/04/09 00:47:49;;;;;;;1.83;0.65;;;7.80;99.90;;;;;;4880059;29;20075;-66
2022/04/09 00:50:16;;;;;;;5.18;1.48;;;7.80;99.90;;;;;;4895930;29;20061;-65
2022/04/09 00:52:47;;;;;;;3.92;2.00;;;7.80;99.90;;;;;;4893558;29;20061;-66
2022/04/09 00:55:18;;;;;;;6.10;3.53;;;8.00;99.90;;;;;;4895092;29;20051;-66
2022/04/09 00:57:46;;;;;;;5.30;3.35;;;8.10;99.90;;;;;;4879743;29;20048;-66
2022/04/09 01:00:14;;;;;;;4.82;3.33;;;8.20;99.90;;;;;;4895409;29;20041;-66
2022/04/09 01:02:44;;;;;;;4.97;3.08;;;8.30;99.90;;;;;;4896507;29;20044;-66
2022/04/09 01:05:12;;;;;;;4.30;3.30;;;8.30;99.90;;;;;;4879848;29;20048;-66
2022/04/09 01:07:39;;;;;;;6.25;3.80;;;8.40;99.90;;;;;;4879274;29;20071;-65
2022/04/09 01:10:08;;;;;;;;;;;8.40;99.90;;;;;;4895434;29;20513;-66
2022/04/09 01:12:36;;;;;;;4.53;2.80;;;8.40;99.90;;;;;;4879527;29;19989;-66
2022/04/09 01:15:05;;;;;;;3.47;2.95;;;8.50;99.90;;;;;;4879747;29;20073;-66
2022/04/09 01:17:34;;;;;;;5.22;2.60;;;8.50;99.90;;;;;;4878201;29;20040;-66
2022/04/09 01:20:21;;;;;;;3.08;2.20;;;8.50;99.90;;;;;;4878638;29;20135;-65
2022/04/09 01:22:50;;;;;;;3.03;1.80;;;8.50;99.90;;;;;;4879575;29;20055;-66
2022/04/09 01:25:18;;;;;;;1.88;1.00;;;8.30;99.90;;;;;;4890318;29;20425;-66
2022/04/09 01:27:47;;;;;;;1.77;1.27;;;8.10;99.90;;;;;;4879298;29;20063;-66
2022/04/09 01:30:15;;;;;;;3.35;1.90;;;8.00;99.90;;;;;;4895352;29;20049;-66
2022/04/09 01:32:43;;;;;;;4.05;1.73;;;8.00;99.90;;;;;;4879349;29;20139;-66
2022/04/09 01:35:10;;;;;;;3.17;1.65;;;8.00;99.90;;;;;;4878675;29;20048;-66
2022/04/09 01:37:37;;;;;;;2.65;1.17;;;8.10;99.90;;;;;;4879304;29;20143;-66
2022/04/09 01:40:05;;;;;;;2.15;1.52;;;8.10;99.90;;;;;;4878405;29;20049;-66
2022/04/09 01:42:32;;;;;;;2.75;1.98;;;8.10;99.90;;;;;;4895517;29;20044;-65
2022/04/09 01:44:59;;;;;;;;;;;8.10;99.90;;;;;;4879463;29;20071;-66
2022/04/09 01:47:26;;;;;;;2.83;1.88;;;8.20;99.90;;;;;;4878391;29;19927;-65
2022/04/09 01:49:53;;;;;;;3.22;1.67;;;8.20;99.90;;;;;;4894663;29;20443;-65
2022/04/09 01:52:21;;;;;;;1.52;1.10;;;8.20;99.90;;;;;;4894711;29;20079;-66
2022/04/09 01:54:48;;;;;;;1.30;1.15;;;8.10;99.90;;;;;;4895821;29;20418;-66
2022/04/09 01:57:15;;;;;;;6.50;0.73;;;8.10;99.90;;;;;;4878787;29;20135;-65
2022/04/09 01:59:44;;;;;;;1.38;0.40;;;7.90;99.90;;;;;;4875005;29;20049;-66
2022/04/09 02:02:12;;;;;;;0.77;0.50;;;7.90;99.90;;;;;;4877102;29;20048;-65
2022/04/09 02:04:38;;;;;;;0.98;0.60;;;7.80;99.90;;;;;;4896085;29;20446;-66
2022/04/09 02:07:06;;;;;;;0.70;0.63;;;7.80;99.90;;;;;;4895737;29;20072;-65
2022/04/09 02:09:33;;;;;;;0.63;0.43;;;7.70;99.90;;;;;;4871313;29;20068;-66
2022/04/09 02:12:00;;;;;;;3.30;0.50;;;7.70;99.90;;;;;;4878917;29;20045;-66
2022/04/09 02:14:26;;;;;;;1.80;0.60;;;7.60;99.90;;;;;;4879024;29;20068;-66
2022/04/09 02:16:53;;;;;;;1.27;0.93;;;7.60;99.90;;;;;;4879264;29;20087;-66
2022/04/09 02:19:20;;;;;;;1.48;1.00;;;7.60;99.90;;;;;;4887431;29;20523;-66
2022/04/09 02:21:47;;;;;;;1.25;0.90;;;7.60;99.90;;;;;;4878469;29;20052;-66
2022/04/09 02:24:14;;;;;;;;;;;7.60;99.90;;;;;;4896106;29;20494;-66
2022/04/09 02:26:41;;;;;;;2.72;0.88;;;7.60;99.90;;;;;;4894958;29;19928;-66
2022/04/09 02:29:08;;;;;;;1.65;1.00;;;7.70;99.90;;;;;;4878805;29;20049;-66
2022/04/09 02:31:35;;;;;;;2.72;1.20;;;7.50;99.90;;;;;;4877796;29;20497;-66
2022/04/09 02:34:03;;;;;;;1.65;0.98;;;7.50;99.90;;;;;;4875290;29;20456;-66
2022/04/09 02:36:32;;;;;;;3.10;1.00;;;7.50;99.90;;;;;;4878557;29;20135;-66
2022/04/09 02:38:59;;;;;;;3.00;1.70;;;7.50;99.90;;;;;;4895414;29;20052;-66
2022/04/09 02:41:28;;;;;;;2.25;1.20;;;7.50;99.90;;;;;;4877744;29;20044;-66
2022/04/09 02:43:57;;;;;;;5.78;3.60;;;7.50;99.90;;;;;;4878210;29;20049;-66
2022/04/09 02:46:25;;;;;;;6.43;3.15;;;7.60;99.90;;;;;;4877745;29;20059;-65
2022/04/09 02:48:55;;;;;;;1.65;0.70;;;7.70;99.90;;;;;;4878676;29;20051;-66
2022/04/09 02:51:22;;;;;;;0.70;0.63;;;7.90;99.90;;;;;;4878050;29;20044;-65
2022/04/09 02:53:49;;;;;;;2.17;0.20;;;8.10;99.90;;;;;;4891184;29;20543;-65
2022/04/09 02:56:16;;;;;;;2.70;0.50;;;8.40;99.90;;;;;;4893927;29;20101;-65
2022/04/09 02:58:43;;;;;;;0.13;0.13;;;8.50;99.90;;;;;;4878539;29;20048;-66
2022/04/09 03:01:10;;;;;;;0.20;0.20;;;8.40;99.90;;;;;;4881521;29;20055;-66
2022/04/09 03:03:37;;;;;;;0.00;0.00;;;8.00;99.90;;;;;;4898223;29;20045;-66
2022/04/09 03:06:04;;;;;;;0.35;0.05;;;7.50;99.90;;;;;;4881956;29;20044;-65
2022/04/09 03:08:31;;;;;;;0.10;0.00;;;7.00;99.90;;;;;;4898774;29;20044;-65
2022/04/09 03:10:57;;;;;;;0.00;0.00;;;6.60;99.90;;;;;;4880416;29;20052;-65
2022/04/09 03:13:24;;;;;;;0.35;0.00;;;6.50;99.90;;;;;;4898431;29;20051;-65
2022/04/09 03:15:52;;;;;;;0.00;0.00;;;6.50;99.90;;;;;;4898835;29;20056;-65
2022/04/09 03:18:20;;;;;;;0.00;0.00;;;6.20;99.90;;;;;;4881689;29;20097;-66
2022/04/09 03:20:47;;;;;;;;;;;6.00;99.90;;;;;;4877320;29;20041;-65
2022/04/09 03:23:16;;;;;;;0.70;0.00;;;5.90;99.90;;;;;;4895873;29;19975;-65
2022/04/09 03:25:50;;;;;;;0.00;0.00;;;5.70;99.90;;;;;;4881737;29;20045;-65
2022/04/09 03:28:20;;;;;;;0.00;0.00;;;5.60;99.90;;;;;;4879422;29;20059;-65
2022/04/09 03:30:47;;;;;;;0.47;0.00;;;5.50;99.90;;;;;;4875348;29;20139;-65
2022/04/09 03:33:17;;;;;;;0.10;0.00;;;5.50;99.90;;;;;;4881379;29;20040;-66
2022/04/09 03:35:47;;;;;;;0.00;0.00;;;5.30;99.90;;;;;;4880911;29;20052;-66
2022/04/09 03:38:16;;;;;;;0.00;0.00;;;5.20;99.90;;;;;;4881174;29;20052;-65
2022/04/09 03:40:48;;;;;;;0.00;0.00;;;5.20;99.90;;;;;;4880355;29;20071;-65
2022/04/09 03:43:19;;;;;;;0.10;0.00;;;5.00;99.90;;;;;;4881441;29;20044;-65
2022/04/09 03:45:47;;;;;;;0.00;0.00;;;4.60;99.90;;;;;;4880488;29;20044;-65
2022/04/09 03:48:13;;;;;;;0.75;0.00;;;3.90;99.90;;;;;;4881204;29;20044;-64
2022/04/09 03:50:43;;;;;;;0.63;0.00;;;3.50;99.90;;;;;;4880162;29;20104;-65
2022/04/09 03:53:19;;;;;;;0.00;0.00;;;3.20;99.90;;;;;;4880745;29;20429;-65
2022/04/09 03:55:50;;;;;;;0.00;0.00;;;3.10;99.90;;;;;;4880963;29;20041;-65
2022/04/09 03:58:19;;;;;;;0.00;0.00;;;3.10;99.90;;;;;;4880802;29;20155;-65
2022/04/09 04:00:48;;;;;;;0.35;0.00;;;3.00;99.90;;;;;;4879317;29;20048;-65
2022/04/09 04:03:16;;;;;;;0.05;0.00;;;3.00;99.90;;;;;;4880706;29;20096;-65
2022/04/09 04:05:43;;;;;;;0.00;0.00;;;2.90;99.90;;;;;;4880800;29;20140;-65
2022/04/09 04:08:10;;;;;;;0.08;0.00;;;2.90;99.90;;;;;;4880927;29;20589;-65
2022/04/09 04:10:38;;;;;;;0.00;0.00;;;2.90;99.90;;;;;;4878341;29;20045;-66
2022/04/09 04:13:17;;;;;;;0.08;0.08;;;2.90;99.90;;;;;;4880822;29;20053;-65
2022/04/09 04:15:44;;;;;;;0.00;0.00;;;2.90;99.90;;;;;;4880651;29;20053;-66
2022/04/09 04:18:11;;;;;;;0.17;0.03;;;2.90;99.90;;;;;;4897021;29;20092;-66
2022/04/09 04:20:42;;;;;;;0.10;0.00;;;3.00;99.90;;;;;;4879554;29;20076;-66
2022/04/09 04:23:09;;;;;;;0.00;0.00;;;3.00;99.90;;;;;;4880759;29;20043;-67
2022/04/09 04:25:36;;;;;;;0.13;0.10;;;3.00;99.90;;;;;;4880486;29;20398;-66
2022/04/09 04:28:05;;;;;;;0.20;0.00;;;3.00;99.90;;;;;;4879807;29;20048;-66
2022/04/09 04:30:33;;;;;;;;;;;3.00;99.90;;;;;;4879905;29;20051;-66
2022/04/09 04:32:59;;;;;;;0.70;0.00;;;3.00;99.90;;;;;;4896005;29;19923;-66
2022/04/09 04:35:34;;;;;;;0.30;0.10;;;3.10;99.90;;;;;;4879610;29;20041;-66
2022/04/09 04:38:01;;;;;;;0.00;0.00;;;3.10;99.90;;;;;;4880375;29;20426;-67
2022/04/09 04:40:31;;;;;;;0.45;0.10;;;3.10;99.90;;;;;;4879298;29;20048;-66
2022/04/09 04:43:03;;;;;;;2.40;0.10;;;3.10;99.90;;;;;;4876817;29;20052;-66
2022/04/09 04:45:31;;;;;;;0.10;0.10;;;3.10;99.90;;;;;;4879923;29;20470;-66
2022/04/09 04:47:59;;;;;;;0.40;0.22;;;3.10;99.90;;;;;;4880362;29;20089;-66
2022/04/09 04:50:31;;;;;;;1.50;0.30;;;3.10;99.90;;;;;;4879169;29;20056;-66
2022/04/09 04:53:00;;;;;;;0.13;0.13;;;3.10;99.90;;;;;;4879600;29;20128;-66
2022/04/09 04:55:35;;;;;;;0.35;0.17;;;3.10;99.90;;;;;;4873068;29;20045;-66
2022/04/09 04:58:02;;;;;;;0.20;0.20;;;3.10;99.90;;;;;;4879797;29;20055;-65
2022/04/09 05:00:41;;;;;;;0.13;0.13;;;3.10;99.90;;;;;;4878404;29;20173;-66
2022/04/09 05:03:12;;;;;;;0.28;0.20;;;3.10;99.90;;;;;;4879936;29;20048;-66
2022/04/09 05:05:51;;;;;;;0.60;0.20;;;3.10;99.90;;;;;;4879968;29;20049;-66
2022/04/09 05:08:18;;;;;;;1.85;0.60;;;3.10;99.90;;;;;;4879923;29;20049;-66
2022/04/09 05:10:45;;;;;;;0.25;0.20;;;3.10;99.90;;;;;;4903377;23;20148;-64
2022/04/09 05:13:15;;;;;;;5.68;1.48;;;3.00;99.90;;;;;;4915069;29;20040;-64
2022/04/09 05:15:43;;;;;;;0.30;0.30;;;3.00;99.90;;;;;;4898862;29;20048;-64
2022/04/09 05:18:11;;;;;;;1.08;0.22;;;3.00;99.90;;;;;;4898224;29;20044;-64
2022/04/09 05:20:38;;;;;;;0.70;0.30;;;3.00;99.90;;;;;;4896645;29;20040;-64
2022/04/09 05:23:08;;;;;;;0.28;0.17;;;3.00;99.90;;;;;;4898745;29;20478;-64
2022/04/09 05:25:37;;;;;;;0.57;0.40;;;2.90;99.90;;;;;;4898734;29;20095;-64
2022/04/09 05:28:07;;;;;;;1.70;1.00;;;2.80;99.90;;;;;;4897964;29;20509;-64
2022/04/09 05:30:44;;;;;;;0.50;0.30;;;2.80;99.90;;;;;;4898227;29;20044;-64
2022/04/09 05:33:12;;;;;;;1.27;0.40;;;2.80;99.90;;;;;;4898534;29;20442;-64
2022/04/09 05:35:43;;;;;;;0.50;0.20;;;2.70;99.90;;;;;;4897590;29;20039;-64
2022/04/09 05:38:11;;;;;;;2.38;0.22;;;2.70;99.90;;;;;;4897362;29;20040;-64
2022/04/09 05:40:38;;;;;;;1.75;0.40;;;2.70;99.90;;;;;;4907847;29;20040;-64
2022/04/09 05:43:11;;;;;;;0.60;0.50;;;2.70;99.90;;;;;;4917237;29;20491;-64
2022/04/09 05:45:42;;;;;;;1.17;0.45;;;2.70;99.90;;;;;;4901312;29;20046;-64
2022/04/09 05:48:09;;;;;;;;;;;2.70;99.90;;;;;;4898844;29;20040;-64
2022/04/09 05:50:46;;;;;;;1.05;0.70;;;2.80;99.90;;;;;;4897963;29;20406;-64
2022/04/09 05:53:14;;;;;;;2.80;1.00;;;2.90;99.90;;;;;;4897131;29;20450;-64
2022/04/09 05:55:41;;;;;;;;;;;2.90;99.90;;;;;;4892791;29;20051;-64
2022/04/09 05:58:09;;;;;;;4.57;2.30;;;2.90;99.90;;;;;;4898283;29;19923;-64
2022/04/09 06:00:39;;;;;;;3.72;2.40;;;2.90;99.90;;;;;;4897884;29;20056;-64
2022/04/09 06:03:17;;;;;;;4.28;1.90;;;3.00;99.90;;;;;;4897102;29;20058;-64
2022/04/09 06:05:44;;;;;;;2.25;1.75;;;3.00;99.90;;;;;;4898123;29;20135;-64
2022/04/09 06:08:18;;;;;;;4.75;2.45;;;3.00;99.90;;;;;;4898248;29;20051;-64
2022/04/09 06:10:46;;;;;;;5.03;2.33;;;3.00;99.90;;;;;;4897720;29;20048;-64
2022/04/09 06:13:13;;;;;;;5.18;2.88;;;3.00;99.90;;;;;;4896947;29;20048;-64
2022/04/09 06:15:41;;;;;;;8.57;3.50;;;2.90;99.90;;;;;;4898013;29;20083;-64
2022/04/09 06:18:14;;;;;;;6.63;3.35;;;2.90;99.90;;;;;;4898152;29;20135;-64
2022/04/09 06:20:41;;;;;;;;;;;2.90;99.90;;;;;;4912683;29;20127;-64
2022/04/09 06:23:12;;;;;;;6.93;3.58;;;2.90;99.90;;;;;;4896222;29;19923;-64
2022/04/09 06:25:39;;;;;;;13.88;4.60;;;2.90;99.90;;;;;;4898057;29;20051;-64
2022/04/09 06:28:08;;;;;;;9.52;4.45;;;3.00;99.90;;;;;;4897865;29;20080;-65
2022/04/09 06:30:39;;;;;;;9.88;5.43;;;3.00;99.90;;;;;;4896386;29;20501;-64
2022/04/09 06:33:12;;;;;;;10.00;5.18;;;3.00;99.90;;;;;;4897811;29;20048;-64
2022/04/09 06:35:40;;;;;;;13.95;5.85;;;3.00;99.90;;;;;;4901216;29;20045;-64
2022/04/09 06:38:09;;;;;;;10.05;5.80;;;3.00;99.90;;;;;;4899720;29;20048;-64
2022/04/09 06:40:37;;;;;;;;;;;3.10;99.90;;;;;;4901519;29;20051;-64
2022/04/09 06:43:04;;;;;;;10.23;5.45;;;3.10;99.90;;;;;;4901482;29;19927;-64
2022/04/09 06:46:03;;;;;;;12.02;6.82;;;3.10;99.90;;;;;;4914272;29;20128;-64
2022/04/09 06:48:30;;;;;;;15.82;8.02;;;3.10;99.90;;;;;;4912413;29;20048;-64
2022/04/09 06:51:26;;;;;;;11.82;6.97;;;3.10;99.90;;;;;;4903372;29;20072;-64
2022/04/09 06:54:02;;;;;;;17.25;7.28;;;3.20;99.90;;;;;;4901448;29;20535;-64
2022/04/09 06:56:29;;;;;;;16.52;7.70;;;3.20;99.90;;;;;;4900116;29;20062;-64
2022/04/09 06:58:56;;;;;;;15.40;7.18;;;3.20;99.90;;;;;;4901229;29;20107;-64
2022/04/09 07:01:26;;;;;;;16.65;7.60;;;3.20;99.90;;;;;;4900097;29;20071;-64
2022/04/09 07:03:54;;;;;;;13.10;7.78;;;3.20;99.90;;;;;;4901228;29;20048;-64
2022/04/09 07:06:21;;;;;;;15.10;7.50;;;3.20;99.90;;;;;;4911821;29;20052;-64
2022/04/09 07:08:48;;;;;;;14.63;6.43;;;3.30;99.90;;;;;;4917981;29;20099;-64
2022/04/09 07:11:15;;;;;;;14.05;7.18;;;3.20;99.90;;;;;;4917090;29;20536;-64
2022/04/09 07:13:42;;;;;;;12.82;6.97;;;3.30;99.90;;;;;;4917955;29;20048;-64
2022/04/09 07:16:09;;;;;;;14.38;7.07;;;3.30;99.90;;;;;;4913481;29;20111;-64
2022/04/09 07:18:35;;;;;;;12.55;6.75;;;3.40;99.90;;;;;;4917913;29;20048;-64
2022/04/09 07:21:02;;;;;;;13.68;5.82;;;3.50;99.90;;;;;;4917526;29;20104;-64
2022/04/09 07:23:29;;;;;;;12.07;7.47;;;3.60;99.90;;;;;;4915517;29;20067;-64
2022/04/09 07:25:56;;;;;;;14.40;8.05;;;3.70;99.90;;;;;;4917821;29;20374;-64
2022/04/09 07:28:23;;;;;;;14.10;7.60;;;3.70;99.90;;;;;;4917836;29;20036;-64
2022/04/09 07:30:50;;;;;;;15.70;7.55;;;3.70;99.90;;;;;;4916151;29;20137;-65
2022/04/09 07:33:16;;;;;;;17.10;7.80;;;3.80;99.90;;;;;;4899186;29;20048;-64
2022/04/09 07:35:43;;;;;;;13.13;6.00;;;3.70;99.90;;;;;;4917066;29;20036;-64
2022/04/09 07:38:10;;;;;;;16.30;7.68;;;3.60;99.90;;;;;;4914767;29;20048;-64
2022/04/09 07:40:37;;;;;;;15.52;8.48;;;3.50;99.90;;;;;;4909915;29;20681;-64
2022/04/09 07:43:04;;;;;;;14.00;7.68;;;3.50;99.90;;;;;;4917327;29;20067;-64
2022/04/09 07:45:31;;;;;;;12.60;7.28;;;3.40;99.90;;;;;;4916160;29;20040;-64
2022/04/09 07:48:01;;;;;;;13.43;6.90;;;3.50;99.90;;;;;;4917344;29;20048;-64
2022/04/09 07:50:28;;;;;;;14.23;6.72;;;3.50;99.90;;;;;;4909534;29;20041;-64
2022/04/09 07:52:55;;;;;;;13.13;7.60;;;3.50;99.90;;;;;;4916793;29;20040;-64
2022/04/09 07:55:23;;;;;;;15.82;7.03;;;3.50;99.90;;;;;;4916988;29;20048;-64
2022/04/09 07:57:51;;;;;;;12.52;6.85;;;3.60;99.90;;;;;;4897702;29;20771;-64
2022/04/09 08:00:20;;;;;;;12.70;7.13;;;3.60;99.90;;;;;;4915544;29;20044;-64
2022/04/09 08:02:47;;;;;;;13.43;6.75;;;3.70;99.90;;;;;;4917160;29;20048;-64
2022/04/09 08:05:17;;;;;;;13.68;7.20;;;3.60;99.90;;;;;;4917092;29;20076;-64
2022/04/09 08:07:44;;;;;;;17.65;8.35;;;3.70;99.90;;;;;;4913765;29;20044;-64
2022/04/09 08:10:11;;;;;;;;;;;3.80;99.90;;;;;;4916677;29;20052;-64
2022/04/09 08:12:38;;;;;;;14.85;8.88;;;3.80;99.90;;;;;;4916941;29;20022;-64
2022/04/09 08:15:06;;;;;;;15.55;8.38;;;3.90;99.90;;;;;;4913581;29;20505;-64
2022/04/09 08:17:33;;;;;;;14.00;7.40;;;3.90;99.90;;;;;;4916138;29;20036;-64
2022/04/09 08:20:00;;;;;;;11.70;6.68;;;3.90;99.90;;;;;;4916377;29;20059;-64
2022/04/09 08:22:28;;;;;;;14.25;7.45;;;4.00;99.90;;;;;;4914586;29;20084;-61
2022/04/09 08:24:56;;;;;;;8.70;5.78;;;4.20;99.90;;;;;;4912400;29;20052;-61
2022/04/09 08:27:23;;;;;;;10.63;6.45;;;4.20;99.90;;;;;;4916483;29;20071;-62
2022/04/09 08:29:50;;;;;;;9.52;5.53;;;4.50;99.90;;;;;;4916225;29;20044;-61
2022/04/09 08:32:16;;;;;;;9.85;5.82;;;4.70;99.90;;;;;;4912243;29;20059;-62
2022/04/09 08:34:43;;;;;;;9.65;5.85;;;4.80;99.90;;;;;;4916335;29;20119;-62
2022/04/09 08:37:10;;;;;;;7.38;4.28;;;4.80;99.90;;;;;;4916113;29;20044;-61
2022/04/09 08:39:37;;;;;;;6.78;4.65;;;4.80;99.90;;;;;;4915419;29;20501;-62
2022/04/09 08:42:04;;;;;;;8.52;5.13;;;4.70;99.90;;;;;;4912066;29;20048;-64
2022/04/09 08:44:33;;;;;;;17.17;6.07;;;4.60;99.90;;;;;;4916088;29;20067;-62
2022/04/09 08:47:00;;;;;;;12.35;5.70;;;4.40;99.90;;;;;;4916275;29;20122;-62
2022/04/09 08:49:30;;;;;;;14.07;6.50;;;4.40;99.90;;;;;;4896034;29;20040;-64
2022/04/09 08:51:57;;;;;;;10.77;6.47;;;4.40;99.90;;;;;;4912308;29;20071;-62
2022/04/09 08:54:24;;;;;;;9.43;4.90;;;4.40;99.90;;;;;;4916134;29;20560;-62
2022/04/09 08:56:51;;;;;;;7.30;5.43;;;4.50;99.90;;;;;;4915556;29;20048;-62
2022/04/09 08:59:18;;;;;;;11.25;7.22;;;4.60;99.90;;;;;;4908073;29;20104;-63
2022/04/09 09:01:44;;;;;;;11.18;5.53;;;4.60;99.90;;;;;;4915749;29;20048;-62
2022/04/09 09:04:11;;;;;;;8.90;5.68;;;4.90;99.90;;;;;;4916046;29;20509;-62
2022/04/09 09:06:44;;;;;;;8.20;5.18;;;5.10;99.90;;;;;;4906473;29;20059;-62
2022/04/09 09:09:32;;;;;;;10.50;5.45;;;5.20;99.90;;;;;;4913746;29;20052;-61
2022/04/09 09:12:00;;;;;;;9.38;4.82;;;5.40;99.90;;;;;;4915322;29;20040;-62
2022/04/09 09:14:36;;;;;;;5.38;3.47;;;5.60;99.90;;;;;;4914834;29;20100;-64
2022/04/09 09:17:03;;;;;;;5.50;3.75;;;5.80;99.90;;;;;;4912330;29;20520;-62
2022/04/09 09:19:47;;;;;;;10.32;4.63;;;5.80;99.90;;;;;;4915116;29;20046;-61
2022/04/09 09:22:19;;;;;;;9.63;6.18;;;5.80;99.90;;;;;;4915807;29;20051;-61
2022/04/09 09:25:04;;;;;;;12.35;6.05;;;5.80;99.90;;;;;;4910184;29;20040;-62
2022/04/09 09:27:34;;;;;;;8.82;5.47;;;5.70;99.90;;;;;;4908608;29;20050;-62
2022/04/09 09:30:01;;;;;;;7.20;4.20;;;5.60;99.90;;;;;;4915021;29;20453;-62
2022/04/09 09:32:29;;;;;;;8.63;4.30;;;5.40;99.90;;;;;;4912065;29;20036;-62
2022/04/09 09:34:56;;;;;;;6.90;3.60;;;5.40;99.90;;;;;;4915404;29;20047;-62
2022/04/09 09:37:24;;;;;;;5.45;4.00;;;5.30;99.90;;;;;;4911122;29;20036;-62
2022/04/09 09:39:52;;;;;;;8.13;4.50;;;5.30;99.90;;;;;;4912487;29;20059;-62
2022/04/09 09:42:19;;;;;;;;;;;5.10;99.90;;;;;;4913582;29;20115;-62
2022/04/09 09:44:46;;;;;;;7.95;5.18;;;4.90;99.90;;;;;;4912240;29;19930;-62
2022/04/09 09:47:15;;;;;;;10.90;5.70;;;4.60;99.90;;;;;;4909977;29;20056;-62
2022/04/09 09:49:56;;;;;;;10.73;6.38;;;4.60;99.90;;;;;;4912026;29;20485;-62
2022/04/09 09:52:30;;;;;;;11.05;6.50;;;4.70;99.90;;;;;;4912918;29;20523;-62
2022/04/09 09:55:00;;;;;;;12.27;6.47;;;4.70;99.90;;;;;;4908743;29;20055;-62
2022/04/09 09:57:29;;;;;;;12.57;6.85;;;5.00;99.90;;;;;;4912743;29;20064;-62
2022/04/09 10:00:04;;;;;;;13.77;6.60;;;5.30;99.90;;;;;;4911678;29;20107;-62
2022/04/09 10:02:34;;;;;;;13.63;7.47;;;5.60;99.90;;;;;;4906235;29;20076;-62
2022/04/09 10:05:01;;;;;;;13.00;6.55;;;5.80;99.90;;;;;;4907122;29;20044;-62
2022/04/09 10:07:27;;;;;;;12.07;5.97;;;6.00;99.90;;;;;;4907145;29;20119;-61
2022/04/09 10:09:54;;;;;;;14.10;7.35;;;6.20;99.90;;;;;;4912876;29;20048;-61
2022/04/09 10:12:23;;;;;;;13.65;5.88;;;6.50;99.90;;;;;;4915924;29;20063;-61
2022/04/09 10:14:54;;;;;;;14.23;5.57;;;6.80;99.90;;;;;;4916354;29;20051;-62
2022/04/09 10:17:22;;;;;;;6.78;4.45;;;7.20;99.90;;;;;;4914650;29;20511;-61
2022/04/09 10:20:01;;;;;;;5.90;3.90;;;7.60;99.90;;;;;;4912806;29;20047;-62
2022/04/09 10:22:43;;;;;;;9.25;4.70;;;7.80;99.90;;;;;;4914917;29;20048;-62
2022/04/09 10:25:10;;;;;;;8.90;5.07;;;7.30;99.90;;;;;;4897422;29;20379;-62
2022/04/09 10:27:47;;;;;;;8.07;5.40;;;7.50;99.90;;;;;;4915566;29;20561;-62
2022/04/09 10:30:21;;;;;;;9.05;4.82;;;7.80;99.90;;;;;;4915397;29;20067;-63
2022/04/09 10:32:59;;;;;;;9.07;5.60;;;7.80;99.90;;;;;;4916280;29;20516;-62
2022/04/09 10:35:40;;;;;;;8.95;5.00;;;7.90;99.90;;;;;;4918326;29;20449;-62
2022/04/09 10:38:06;;;;;;;9.73;5.90;;;7.60;99.90;;;;;;4913367;29;20050;-62
2022/04/09 10:40:34;;;;;;;10.35;6.50;;;6.60;99.90;;;;;;4918065;29;20501;-62
2022/04/09 10:43:03;;;;;;;8.45;5.68;;;6.90;99.90;;;;;;4914261;29;20143;-62
2022/04/09 10:45:50;;;;;;;11.10;6.47;;;7.10;99.90;;;;;;4910651;29;20431;-62
2022/04/09 10:48:28;;;;;;;10.00;5.40;;;7.20;99.90;;;;;;4912648;29;20127;-62
2022/04/09 10:51:01;;;;;;;8.35;5.25;;;7.20;99.90;;;;;;4915396;29;20048;-61
2022/04/09 10:53:30;;;;;;;8.48;5.47;;;7.30;99.90;;;;;;4912352;29;20044;-61
2022/04/09 10:56:24;;;;;;;10.23;5.47;;;7.40;99.90;;;;;;4912728;29;20091;-62
2022/04/09 10:59:06;;;;;;;10.95;5.53;;;7.60;99.90;;;;;;4892709;29;20581;-62
2022/04/09 11:01:51;;;;;;;5.32;3.47;;;7.50;99.90;;;;;;4911156;29;20050;-61
2022/04/09 11:04:28;;;;;;;4.10;3.05;;;6.30;99.90;;;;;;4909318;29;20465;-61
2022/04/09 11:07:12;;;;;;;5.07;3.20;;;5.60;99.90;;;;;;4914306;29;20095;-61
2022/04/09 11:09:57;;;;;;;6.88;3.85;;;5.20;99.90;;;;;;4912634;29;20052;-61
2022/04/09 11:12:29;;;;;;;6.75;3.15;;;5.40;99.90;;;;;;4913078;29;20044;-61
2022/04/09 11:15:05;;;;;;;6.40;3.75;;;5.60;99.90;;;;;;4914160;29;20536;-61
2022/04/09 11:17:40;;;;;;;4.07;2.78;;;5.80;99.90;;;;;;4914753;29;20040;-61
2022/04/09 11:20:18;;;;;;;7.78;3.33;;;5.90;99.90;;;;;;4914906;29;20051;-62
2022/04/09 11:22:47;;;;;;;5.72;3.30;;;6.10;99.90;;;;;;4910023;29;20179;-61
2022/04/09 11:25:19;;;;;;;7.03;3.97;;;6.30;99.90;;;;;;4914025;29;20044;-61
2022/04/09 11:27:46;;;;;;;9.75;5.13;;;6.40;99.90;;;;;;4909876;29;20501;-61
2022/04/09 11:30:14;;;;;;;8.30;4.38;;;6.50;99.90;;;;;;4912725;29;20044;-61
2022/04/09 11:32:41;;;;;;;5.55;3.67;;;6.60;99.90;;;;;;4913370;29;20059;-62
2022/04/09 11:35:10;;;;;;;9.43;5.05;;;6.70;99.90;;;;;;4913722;29;20043;-61
2022/04/09 11:37:41;;;;;;;10.18;4.53;;;6.80;99.90;;;;;;4915179;29;20048;-61
2022/04/09 11:40:10;;;;;;;5.45;3.50;;;7.00;99.90;;;;;;4913379;29;20610;-61
2022/04/09 11:42:46;;;;;;;4.38;2.83;;;6.90;99.90;;;;;;4915550;29;20417;-61
2022/04/09 11:45:31;;;;;;;7.97;3.53;;;6.90;99.90;;;;;;4917406;29;20052;-62
2022/04/09 11:48:01;;;;;;;8.45;4.15;;;6.90;99.90;;;;;;4917635;29;20071;-62
2022/04/09 11:50:33;;;;;;;6.40;3.60;;;7.20;99.90;;;;;;4915232;29;20044;-61
2022/04/09 11:53:16;;;;;;;6.57;3.53;;;7.40;99.90;;;;;;4917298;29;20044;-62
2022/04/09 11:55:44;;;;;;;8.32;3.90;;;7.90;99.90;;;;;;4917200;29;20167;-62
2022/04/09 11:58:18;;;;;;;5.15;3.38;;;8.50;99.90;;;;;;4917361;29;20071;-62
2022/04/09 12:00:46;;;;;;;5.13;3.40;;;8.80;99.90;;;;;;4913476;29;20067;-62
2022/04/09 12:03:15;;;;;;;6.10;3.25;;;9.30;99.90;;;;;;4917423;29;20083;-63
2022/04/09 12:05:47;;;;;;;5.70;3.50;;;9.90;99.90;;;;;;4917129;29;20497;-62
2022/04/09 12:08:25;;;;;;;5.18;3.08;;;10.10;99.90;;;;;;4911019;29;20379;-62
2022/04/09 12:10:53;;;;;;;4.00;2.63;;;10.20;99.90;;;;;;4916202;29;20047;-62
2022/04/09 12:13:30;;;;;;;3.90;2.58;;;9.60;99.60;;;;;;4917015;29;20051;-62
2022/04/09 12:16:21;;;;;;;3.08;2.40;;;9.30;99.90;;;;;;4917208;29;20468;-62
2022/04/09 12:18:48;;;;;;;4.63;2.28;;;8.70;98.20;;;;;;4910341;29;20112;-62
2022/04/09 12:21:23;;;;;;;3.72;2.30;;;8.00;99.90;;;;;;4914181;29;20066;-62
2022/04/09 12:24:01;;;;;;;3.38;2.20;;;7.60;99.90;;;;;;4907919;29;20044;-62
2022/04/09 12:26:28;;;;;;;;;;;7.10;99.90;;;;;;4901543;29;20536;-62
2022/04/09 12:29:10;;;;;;;3.40;2.10;;;6.80;99.90;;;;;;4916533;29;19942;-62
2022/04/09 12:31:39;;;;;;;6.28;3.13;;;7.10;99.90;;;;;;4915696;29;20045;-61
2022/04/09 12:34:06;;;;;;;5.80;2.58;;;5.80;99.90;;;;;;4916713;29;20048;-62
2022/04/09 12:36:33;;;;;;;4.50;2.95;;;5.60;99.90;;;;;;4910857;29;20050;-62
2022/04/09 12:39:03;;;;;;;;;;;5.30;99.90;;;;;;4916609;29;20036;-62
2022/04/09 12:41:45;;;;;;;5.47;3.42;;;5.30;99.90;;;;;;4916084;29;19923;-62
2022/04/09 12:44:30;;;;;;;7.18;3.70;;;5.30;99.90;;;;;;4909046;29;20044;-62
2022/04/09 12:46:58;;;;;;;5.43;3.38;;;5.50;99.90;;;;;;4916261;29;20047;-62
2022/04/09 12:49:28;;;;;;;;;;;5.50;99.90;;;;;;4916327;29;20055;-62
2022/04/09 12:51:56;;;;;;;7.45;3.25;;;5.50;99.90;;;;;;4916258;29;19926;-62
2022/04/09 12:54:23;;;;;;;11.77;3.75;;;5.50;99.90;;;;;;4908155;29;20048;-62
2022/04/09 12:56:51;;;;;;;5.85;2.88;;;5.70;99.90;;;;;;4915943;29;20050;-61
2022/04/09 12:59:18;;;;;;;4.72;3.33;;;6.10;99.90;;;;;;4915326;29;20115;-61
2022/04/09 13:01:45;;;;;;;6.88;2.83;;;6.60;99.90;;;;;;4914889;29;20051;-62
2022/04/09 13:04:12;;;;;;;7.93;2.90;;;6.70;99.90;;;;;;4909876;29;20494;-62
2022/04/09 13:06:40;;;;;;;4.57;2.85;;;7.00;99.90;;;;;;4914509;29;20044;-62
2022/04/09 13:09:10;;;;;;;5.45;2.20;;;7.10;99.90;;;;;;4907940;29;20413;-62
2022/04/09 13:11:37;;;;;;;3.40;2.33;;;7.40;99.90;;;;;;4912702;29;20497;-61